createdAt,value
2023-04-19T00:01:33.930Z,6.00
2023-04-19T00:04:03.770Z,4.90
2023-04-19T00:06:32.006Z,4.40
2023-04-19T00:09:00.230Z,5.40
2023-04-19T00:11:28.362Z,4.90
2023-04-19T00:13:56.566Z,5.00
2023-04-19T00:16:24.789Z,8.10
2023-04-19T00:18:53.061Z,6.60
2023-04-19T00:21:21.300Z,24.00
2023-04-19T00:23:49.450Z,24.10
2023-04-19T00:26:17.584Z,15.10
2023-04-19T00:28:48.809Z,13.90
2023-04-19T00:31:17.231Z,20.50
2023-04-19T00:33:45.463Z,19.10
2023-04-19T00:36:13.730Z,14.40
2023-04-19T00:38:41.885Z,11.50
2023-04-19T00:41:11.599Z,18.70
2023-04-19T00:43:39.900Z,8.20
2023-04-19T00:46:08.057Z,9.70
2023-04-19T00:48:36.406Z,9.10
2023-04-19T00:51:04.849Z,7.00
2023-04-19T00:53:33.289Z,6.30
2023-04-19T00:56:01.579Z,6.40
2023-04-19T00:58:31.609Z,6.80
2023-04-19T01:01:00.560Z,9.00
2023-04-19T01:03:32.094Z,5.30
2023-04-19T01:08:28.364Z,4.90
2023-04-19T01:10:56.516Z,9.00
2023-04-19T01:13:25.132Z,8.00
2023-04-19T01:15:53.246Z,5.70
2023-04-19T01:18:24.458Z,5.20
2023-04-19T01:20:52.928Z,9.20
2023-04-19T01:23:21.552Z,8.50
2023-04-19T01:25:50.722Z,6.10
2023-04-19T01:28:19.024Z,6.30
2023-04-19T01:33:21.114Z,7.10
2023-04-19T01:35:49.539Z,6.80
2023-04-19T01:38:17.757Z,6.40
2023-04-19T01:40:46.175Z,5.70
2023-04-19T01:43:17.411Z,7.60
2023-04-19T01:45:46.171Z,5.30
2023-04-19T01:48:14.730Z,6.30
2023-04-19T01:50:42.824Z,5.90
2023-04-19T01:53:12.306Z,7.90
2023-04-19T01:55:40.607Z,5.90
2023-04-19T01:58:09.967Z,6.90
2023-04-19T02:00:38.137Z,8.70
2023-04-19T02:03:06.405Z,6.00
2023-04-19T02:05:34.827Z,4.90
2023-04-19T02:08:03.100Z,6.20
2023-04-19T02:10:32.228Z,6.90
2023-04-19T02:13:00.368Z,5.10
2023-04-19T02:15:29.332Z,5.80
2023-04-19T02:17:57.605Z,5.70
2023-04-19T02:20:25.926Z,5.60
2023-04-19T02:22:54.133Z,6.50
2023-04-19T02:25:22.230Z,4.60
2023-04-19T02:27:51.136Z,4.60
2023-04-19T02:30:19.431Z,4.70
2023-04-19T02:32:51.354Z,5.80
2023-04-19T02:35:19.646Z,6.80
2023-04-19T02:37:47.722Z,7.10
2023-04-19T02:40:16.209Z,7.30
2023-04-19T02:45:12.516Z,4.70
2023-04-19T02:50:09.692Z,9.80
2023-04-19T02:52:42.208Z,7.20
2023-04-19T02:55:10.539Z,5.70
2023-04-19T02:57:39.314Z,6.50
2023-04-19T03:00:09.272Z,8.10
2023-04-19T03:02:39.681Z,14.70
2023-04-19T03:05:08.953Z,23.10
2023-04-19T03:07:37.387Z,23.30
2023-04-19T03:12:34.468Z,21.10
2023-04-19T03:15:02.704Z,25.40
2023-04-19T03:17:31.112Z,22.20
2023-04-19T03:19:59.398Z,10.30
2023-04-19T03:22:28.126Z,7.70
2023-04-19T03:24:56.904Z,7.00
2023-04-19T03:27:25.781Z,5.60
2023-04-19T03:29:58.356Z,5.50
2023-04-19T03:32:27.392Z,6.20
2023-04-19T03:34:55.528Z,7.50
2023-04-19T03:37:23.635Z,5.90
2023-04-19T03:39:51.785Z,6.40
2023-04-19T03:42:26.004Z,10.50
2023-04-19T03:45:16.054Z,10.80
2023-04-19T03:47:47.385Z,11.20
2023-04-19T03:50:15.984Z,11.30
2023-04-19T03:52:46.338Z,8.80
2023-04-19T03:55:14.662Z,7.60
2023-04-19T03:57:42.832Z,15.90
2023-04-19T04:00:17.848Z,16.00
2023-04-19T04:02:50.214Z,13.80
2023-04-19T04:05:18.723Z,12.60
2023-04-19T04:10:15.796Z,9.70
2023-04-19T04:12:44.450Z,11.40
2023-04-19T04:15:15.597Z,18.50
2023-04-19T04:17:48.391Z,15.70
2023-04-19T04:20:16.706Z,14.50
2023-04-19T04:22:48.443Z,12.20
2023-04-19T04:25:20.555Z,12.50
2023-04-19T04:27:54.670Z,9.50
2023-04-19T04:30:24.809Z,11.60
2023-04-19T04:32:58.091Z,9.80
2023-04-19T04:35:29.126Z,13.50
2023-04-19T04:38:11.132Z,10.30
2023-04-19T04:40:43.941Z,15.80
2023-04-19T04:43:13.543Z,16.20
2023-04-19T04:45:44.626Z,15.40
2023-04-19T04:48:13.472Z,13.20
2023-04-19T04:50:41.854Z,12.10
2023-04-19T04:53:11.073Z,10.60
2023-04-19T04:55:42.853Z,10.90
2023-04-19T04:58:12.617Z,12.80
2023-04-19T05:00:51.663Z,8.80
2023-04-19T05:03:21.479Z,9.50
2023-04-19T05:05:54.900Z,7.10
2023-04-19T05:08:28.478Z,12.70
2023-04-19T05:11:00.820Z,8.00
2023-04-19T05:13:30.507Z,10.00
2023-04-19T05:16:00.517Z,8.90
2023-04-19T05:18:29.413Z,8.30
2023-04-19T05:20:58.598Z,8.60
2023-04-19T05:23:29.507Z,8.00
2023-04-19T05:28:28.058Z,7.70
2023-04-19T05:31:09.383Z,8.60
2023-04-19T05:33:45.004Z,8.30
2023-04-19T05:36:13.124Z,10.30
2023-04-19T05:38:41.215Z,7.50
2023-04-19T05:41:09.333Z,6.40
2023-04-19T05:43:37.441Z,10.60
2023-04-19T05:46:06.377Z,12.90
2023-04-19T05:51:11.228Z,8.90
2023-04-19T05:56:28.669Z,12.60
2023-04-19T06:01:25.273Z,13.50
2023-04-19T06:03:54.468Z,12.30
2023-04-19T06:06:23.925Z,9.90
2023-04-19T06:08:54.656Z,15.20
2023-04-19T06:11:26.950Z,11.30
2023-04-19T06:14:03.695Z,9.30
2023-04-19T06:16:32.716Z,8.10
2023-04-19T06:19:01.034Z,11.90
2023-04-19T06:24:01.511Z,15.90
2023-04-19T06:28:58.056Z,18.10
2023-04-19T06:31:26.191Z,10.30
2023-04-19T06:33:54.316Z,9.70
2023-04-19T06:36:22.466Z,10.30
2023-04-19T06:38:50.806Z,11.30
2023-04-19T06:41:19.598Z,10.10
2023-04-19T06:43:48.110Z,9.90
2023-04-19T06:46:16.549Z,8.60
2023-04-19T06:48:44.862Z,10.30
2023-04-19T06:51:12.991Z,12.90
2023-04-19T06:53:41.150Z,10.90
2023-04-19T06:56:10.395Z,10.10
2023-04-19T06:58:38.656Z,9.80
2023-04-19T07:01:07.682Z,8.90
2023-04-19T07:03:36.448Z,7.00
2023-04-19T07:06:04.987Z,7.10
2023-04-19T07:08:48.784Z,9.40
2023-04-19T07:11:20.370Z,10.50
2023-04-19T07:13:50.257Z,16.40
2023-04-19T07:16:18.549Z,8.50
2023-04-19T07:18:46.694Z,9.20
2023-04-19T07:21:14.957Z,11.20
2023-04-19T07:23:43.010Z,11.10
2023-04-19T07:26:11.363Z,13.20
2023-04-19T07:28:39.968Z,8.30
2023-04-19T07:31:08.047Z,8.30
2023-04-19T07:33:36.235Z,7.80
2023-04-19T07:36:04.371Z,9.40
2023-04-19T07:38:32.582Z,11.70
2023-04-19T07:41:00.718Z,13.60
2023-04-19T07:43:30.310Z,11.00
2023-04-19T07:45:58.444Z,6.90
2023-04-19T07:48:27.336Z,15.50
2023-04-19T07:55:51.833Z,13.10
2023-04-19T07:58:19.955Z,12.30
2023-04-19T08:00:48.408Z,8.40
2023-04-19T08:03:16.727Z,11.90
2023-04-19T08:05:45.845Z,11.70
2023-04-19T08:13:10.629Z,14.20
2023-04-19T08:16:18.073Z,11.50
2023-04-19T08:18:27.089Z,10.60
2023-04-19T08:20:56.696Z,10.30
2023-04-19T08:23:31.823Z,14.00
2023-04-19T08:26:06.235Z,16.70
2023-04-19T08:28:34.377Z,18.60
2023-04-19T08:31:06.008Z,16.40
2023-04-19T08:33:35.944Z,21.00
2023-04-19T08:36:05.378Z,20.00
2023-04-19T08:38:33.474Z,54.60
2023-04-19T08:41:01.654Z,19.50
2023-04-19T08:43:33.509Z,15.80
2023-04-19T08:46:01.718Z,24.60
2023-04-19T08:53:35.950Z,11.80
2023-04-19T08:56:17.406Z,38.50
2023-04-19T09:01:33.689Z,5.40
2023-04-19T09:04:16.990Z,26.70
2023-04-19T09:06:55.487Z,26.80
2023-04-19T09:11:59.491Z,20.90
2023-04-19T09:14:28.354Z,14.30
2023-04-19T09:17:17.384Z,45.70
2023-04-19T09:19:49.714Z,13.00
2023-04-19T09:22:18.763Z,14.20
2023-04-19T09:25:22.780Z,19.90
2023-04-19T09:27:36.585Z,14.20
2023-04-19T09:30:07.278Z,10.40
2023-04-19T09:32:48.013Z,19.90
2023-04-19T09:35:16.726Z,14.60
2023-04-19T09:40:35.472Z,24.00
2023-04-19T09:45:42.624Z,11.10
2023-04-19T09:48:11.941Z,9.90
2023-04-19T09:50:59.712Z,13.10
2023-04-19T09:53:34.481Z,10.80
2023-04-19T09:56:04.296Z,20.60
2023-04-19T10:01:13.997Z,21.40
2023-04-19T10:03:46.381Z,13.70
2023-04-19T10:08:51.425Z,14.00
2023-04-19T10:11:22.076Z,22.50
2023-04-19T10:13:50.342Z,14.30
2023-04-19T10:18:50.303Z,13.00
2023-04-19T10:21:19.268Z,13.30
2023-04-19T10:23:47.884Z,9.80
2023-04-19T10:28:44.392Z,14.60
2023-04-19T10:31:16.336Z,18.70
2023-04-19T10:33:44.705Z,18.50
2023-04-19T10:38:51.609Z,13.90
2023-04-19T10:41:19.857Z,17.20
2023-04-19T10:44:00.339Z,12.30
2023-04-19T10:46:29.720Z,15.60
2023-04-19T10:48:59.292Z,13.90
2023-04-19T10:51:28.136Z,14.00
2023-04-19T10:54:18.721Z,16.40
2023-04-19T10:57:04.808Z,12.00
2023-04-19T10:59:37.354Z,31.90
2023-04-19T11:02:28.269Z,23.50
2023-04-19T11:04:56.600Z,14.30
2023-04-19T11:07:24.842Z,17.70
2023-04-19T11:12:23.010Z,16.60
2023-04-19T11:14:53.121Z,12.80
2023-04-19T11:17:28.450Z,17.90
2023-04-19T11:19:56.801Z,18.30
2023-04-19T11:23:00.352Z,12.70
2023-04-19T11:25:31.702Z,5.70
2023-04-19T11:27:59.824Z,20.00
2023-04-19T11:30:30.805Z,13.00
2023-04-19T11:32:59.320Z,10.20
2023-04-19T11:37:56.813Z,13.40
2023-04-19T11:40:28.562Z,12.80
2023-04-19T11:43:01.084Z,9.50
2023-04-19T11:45:34.455Z,9.10
2023-04-19T11:48:04.849Z,12.90
2023-04-19T11:50:34.020Z,7.90
2023-04-19T11:53:24.216Z,16.70
2023-04-19T11:56:08.572Z,16.60
2023-04-19T11:58:45.195Z,17.00
2023-04-19T12:01:14.039Z,15.00
2023-04-19T12:03:50.523Z,23.00
2023-04-19T12:06:29.915Z,16.50
2023-04-19T12:08:58.040Z,13.20
2023-04-19T12:11:27.320Z,15.20
2023-04-19T12:14:12.271Z,17.30
2023-04-19T12:16:40.629Z,17.20
2023-04-19T12:19:17.670Z,13.20
2023-04-19T12:21:46.875Z,13.50
2023-04-19T12:24:15.715Z,15.20
2023-04-19T12:26:56.247Z,14.00
2023-04-19T12:29:24.872Z,20.30
2023-04-19T12:31:53.234Z,17.60
2023-04-19T12:34:21.556Z,19.20
2023-04-19T12:36:50.147Z,20.10
2023-04-19T12:39:18.834Z,24.10
2023-04-19T12:41:48.902Z,22.60
2023-04-19T12:44:17.087Z,20.90
2023-04-19T12:49:13.540Z,23.10
2023-04-19T12:51:42.923Z,15.50
2023-04-19T12:54:11.176Z,16.70
2023-04-19T12:59:07.348Z,28.70
2023-04-19T13:04:05.392Z,22.30
2023-04-19T13:06:34.864Z,23.50
2023-04-19T13:09:11.495Z,23.20
2023-04-19T13:11:42.370Z,26.30
2023-04-19T13:14:10.646Z,30.40
2023-04-19T13:21:35.326Z,25.80
2023-04-19T13:24:03.530Z,25.60
2023-04-19T13:26:31.689Z,29.10
2023-04-19T13:29:00.314Z,22.50
2023-04-19T13:31:28.643Z,28.90
2023-04-19T13:33:57.166Z,26.00
2023-04-19T13:38:53.434Z,22.50
2023-04-19T13:41:21.626Z,22.00
2023-04-19T13:43:49.717Z,25.20
2023-04-19T13:46:18.036Z,17.60
2023-04-19T13:48:46.368Z,27.40
2023-04-19T13:51:14.426Z,24.20
2023-04-19T13:53:42.591Z,23.70
2023-04-19T13:56:11.432Z,22.80
2023-04-19T13:58:39.578Z,33.70
2023-04-19T14:01:07.974Z,28.70
2023-04-19T14:03:36.898Z,38.00
2023-04-19T14:06:05.367Z,24.10
2023-04-19T14:08:33.837Z,31.70
2023-04-19T14:11:02.005Z,25.20
2023-04-19T14:13:30.308Z,40.90
2023-04-19T14:15:58.467Z,29.90
2023-04-19T14:20:55.396Z,32.60
2023-04-19T14:25:53.530Z,31.20
2023-04-19T14:28:22.412Z,31.50
2023-04-19T14:30:50.571Z,34.50
2023-04-19T14:33:18.860Z,31.50
2023-04-19T14:35:47.442Z,38.10
2023-04-19T14:38:16.121Z,37.80
2023-04-19T14:40:44.283Z,27.80
2023-04-19T14:43:15.134Z,39.00
2023-04-19T14:45:43.529Z,27.00
2023-04-19T14:48:12.065Z,31.20
2023-04-19T14:50:40.150Z,33.80
2023-04-19T14:53:08.792Z,19.30
2023-04-19T14:55:40.066Z,23.40
2023-04-19T14:58:09.069Z,27.40
2023-04-19T15:00:37.675Z,25.10
2023-04-19T15:05:34.986Z,26.50
2023-04-19T15:08:03.213Z,27.50
2023-04-19T15:10:32.149Z,40.60
2023-04-19T15:15:29.594Z,26.90
2023-04-19T15:17:58.005Z,31.80
2023-04-19T15:22:54.521Z,31.90
2023-04-19T15:25:22.791Z,42.10
2023-04-19T15:27:50.901Z,49.60
2023-04-19T15:30:19.215Z,38.80
2023-04-19T15:32:47.474Z,47.50
2023-04-19T15:35:15.947Z,64.70
2023-04-19T15:37:46.455Z,41.60
2023-04-19T15:40:17.128Z,57.40
2023-04-19T15:42:46.491Z,90.90
2023-04-19T15:45:15.726Z,59.00
2023-04-19T15:47:44.004Z,37.30
2023-04-19T15:50:12.147Z,50.50
2023-04-19T15:52:41.478Z,44.50
2023-04-19T15:55:09.885Z,40.30
2023-04-19T15:57:38.324Z,58.00
2023-04-19T16:00:09.504Z,44.50
2023-04-19T16:02:41.172Z,38.40
2023-04-19T16:05:09.610Z,36.50
2023-04-19T16:07:38.554Z,57.00
2023-04-19T16:10:07.570Z,29.10
2023-04-19T16:12:36.447Z,39.70
2023-04-19T16:15:05.544Z,32.80
2023-04-19T16:17:36.134Z,49.20
2023-04-19T16:20:04.934Z,34.80
2023-04-19T16:22:33.223Z,37.20
2023-04-19T16:25:03.701Z,52.90
2023-04-19T16:27:31.962Z,37.00
2023-04-19T16:30:00.151Z,40.20
2023-04-19T16:32:28.492Z,45.00
2023-04-19T16:37:25.786Z,35.70
2023-04-19T16:39:53.968Z,32.50
2023-04-19T16:42:22.227Z,24.90
2023-04-19T16:44:50.343Z,40.10
2023-04-19T16:47:18.462Z,35.70
2023-04-19T16:49:50.647Z,34.90
2023-04-19T16:52:19.202Z,27.90
2023-04-19T16:54:47.291Z,46.30
2023-04-19T16:57:16.533Z,24.10
2023-04-19T16:59:45.001Z,26.40
2023-04-19T17:07:09.968Z,41.70
2023-04-19T17:12:07.160Z,33.60
2023-04-19T17:17:03.777Z,30.50
2023-04-19T17:19:31.878Z,35.00
2023-04-19T17:22:05.770Z,35.60
2023-04-19T17:24:34.327Z,34.30
2023-04-19T17:27:02.693Z,33.50
2023-04-19T17:29:31.191Z,40.20
2023-04-19T17:32:00.332Z,36.00
2023-04-19T17:34:28.638Z,33.80
2023-04-19T17:36:56.828Z,29.40
2023-04-19T17:39:27.899Z,32.20
2023-04-19T17:41:56.387Z,41.40
2023-04-19T17:44:24.537Z,31.20
2023-04-19T17:46:52.748Z,29.30
2023-04-19T17:49:21.990Z,35.20
2023-04-19T17:51:53.274Z,31.60
2023-04-19T17:54:21.370Z,42.90
2023-04-19T17:56:49.501Z,33.10
2023-04-19T17:59:17.933Z,29.60
2023-04-19T18:01:46.265Z,39.50
2023-04-19T18:04:18.155Z,38.80
2023-04-19T18:06:46.981Z,35.30
2023-04-19T18:09:16.905Z,44.00
2023-04-19T18:11:45.219Z,52.90
2023-04-19T18:14:15.371Z,60.80
2023-04-19T18:16:43.655Z,54.20
2023-04-19T18:19:11.899Z,83.80
2023-04-19T18:21:40.103Z,78.30
2023-04-19T18:24:08.471Z,82.50
2023-04-19T18:29:10.349Z,56.30
2023-04-19T18:34:07.071Z,32.10
2023-04-19T18:36:35.294Z,42.60
2023-04-19T18:39:04.590Z,45.30
2023-04-19T18:41:33.636Z,30.60
2023-04-19T18:46:34.180Z,37.40
2023-04-19T18:49:02.340Z,34.30
2023-04-19T18:51:30.859Z,50.70
2023-04-19T18:57:04.427Z,42.90
2023-04-19T18:59:16.005Z,40.00
2023-04-19T19:01:45.762Z,42.80
2023-04-19T19:04:42.849Z,47.20
2023-04-19T19:07:27.372Z,39.20
2023-04-19T19:10:06.365Z,34.50
2023-04-19T19:12:44.727Z,55.30
2023-04-19T19:15:13.801Z,57.30
2023-04-19T19:17:43.358Z,38.60
2023-04-19T19:20:12.108Z,34.10
2023-04-19T19:22:40.472Z,37.40
2023-04-19T19:25:10.718Z,32.30
2023-04-19T19:27:39.078Z,37.40
2023-04-19T19:30:08.374Z,24.50
2023-04-19T19:32:37.149Z,29.60
2023-04-19T19:35:08.536Z,26.70
2023-04-19T19:37:37.299Z,14.70
2023-04-19T19:40:06.771Z,32.10
2023-04-19T19:42:35.368Z,18.70
2023-04-19T19:47:35.512Z,32.50
2023-04-19T19:50:50.542Z,28.80
2023-04-19T19:52:52.619Z,22.60
2023-04-19T19:55:20.815Z,28.60
2023-04-19T19:58:25.810Z,21.80
2023-04-19T20:00:46.293Z,28.40
2023-04-19T20:03:28.470Z,34.50
2023-04-19T20:08:43.983Z,22.60
2023-04-19T20:11:12.832Z,24.50
2023-04-19T20:13:41.221Z,30.80
2023-04-19T20:16:10.993Z,29.10
2023-04-19T20:18:39.256Z,21.60
2023-04-19T20:21:07.776Z,21.90
2023-04-19T20:26:08.395Z,24.20
2023-04-19T20:28:36.674Z,28.80
2023-04-19T20:31:05.053Z,17.10
2023-04-19T20:33:34.059Z,26.40
2023-04-19T20:36:04.408Z,26.90
2023-04-19T20:38:34.636Z,34.50
2023-04-19T20:41:03.294Z,29.10
2023-04-19T20:43:32.626Z,20.90
2023-04-19T20:46:00.970Z,21.70
2023-04-19T20:48:29.471Z,20.20
2023-04-19T20:50:57.776Z,25.00
2023-04-19T20:53:26.210Z,21.20
2023-04-19T20:55:54.357Z,32.80
2023-04-19T20:58:22.977Z,20.40
2023-04-19T21:00:51.223Z,21.70
2023-04-19T21:03:21.146Z,14.60
2023-04-19T21:05:49.412Z,21.80
2023-04-19T21:08:19.180Z,17.10
2023-04-19T21:10:47.325Z,17.80
2023-04-19T21:13:15.827Z,13.90
2023-04-19T21:15:44.019Z,16.10
2023-04-19T21:18:12.178Z,13.50
2023-04-19T21:20:40.688Z,16.90
2023-04-19T21:23:08.894Z,17.40
2023-04-19T21:25:37.345Z,9.80
2023-04-19T21:28:05.690Z,24.70
2023-04-19T21:30:33.817Z,28.10
2023-04-19T21:33:01.951Z,13.50
2023-04-19T21:35:30.175Z,23.10
2023-04-19T21:37:58.240Z,22.80
2023-04-19T21:40:26.331Z,15.90
2023-04-19T21:42:54.628Z,30.10
2023-04-19T21:45:22.779Z,24.20
2023-04-19T21:47:52.192Z,31.30
2023-04-19T21:50:20.703Z,15.00
2023-04-19T21:52:48.830Z,14.30
2023-04-19T21:55:16.923Z,29.00
2023-04-19T21:57:45.040Z,18.60
2023-04-19T22:00:13.960Z,29.70
2023-04-19T22:02:42.554Z,16.60
2023-04-19T22:05:10.923Z,19.60
2023-04-19T22:07:40.385Z,29.10
2023-04-19T22:10:09.525Z,31.00
2023-04-19T22:12:47.984Z,31.70
2023-04-19T22:15:25.972Z,19.40
2023-04-19T22:17:54.330Z,23.40
2023-04-19T22:22:52.000Z,29.20
2023-04-19T22:25:20.345Z,22.50
2023-04-19T22:32:45.168Z,12.00
2023-04-19T22:35:13.302Z,21.70
2023-04-19T22:37:41.776Z,26.90
2023-04-19T22:40:10.362Z,16.20
2023-04-19T22:42:38.600Z,22.10
2023-04-19T22:45:08.217Z,20.40
2023-04-19T22:47:37.513Z,18.70
2023-04-19T22:50:07.606Z,18.60
2023-04-19T22:52:35.866Z,22.10
2023-04-19T22:55:04.186Z,18.00
2023-04-19T23:00:00.551Z,21.30
2023-04-19T23:02:28.870Z,18.00
2023-04-19T23:04:58.830Z,19.40
2023-04-19T23:07:28.979Z,26.10
2023-04-19T23:09:57.238Z,30.50
2023-04-19T23:12:25.359Z,26.30
2023-04-19T23:14:53.902Z,18.60
2023-04-19T23:19:49.989Z,24.30
2023-04-19T23:22:18.107Z,27.90
2023-04-19T23:24:46.177Z,40.00
2023-04-19T23:27:14.368Z,19.60
2023-04-19T23:29:42.522Z,25.70
2023-04-19T23:32:10.582Z,35.80
2023-04-19T23:34:38.697Z,30.00
2023-04-19T23:37:06.798Z,29.30
2023-04-19T23:39:35.467Z,29.30
2023-04-19T23:42:03.853Z,27.60
2023-04-19T23:44:32.466Z,38.90
2023-04-19T23:47:02.652Z,33.10
2023-04-19T23:49:31.502Z,29.70
2023-04-19T23:51:59.673Z,22.80
2023-04-19T23:54:28.112Z,27.50
2023-04-19T23:56:57.819Z,25.20
2023-04-19T23:59:27.009Z,28.90
